sensor_id;sensor_type;location;lat;lon;timestamp;pressure;altitude;pressure_sealevel;temperature;humidity
60820;BME280;46641;48.904;9.126;2023-06-22T00:02:13;98555.75;;;28.04;43.37
60820;BME280;46641;48.904;9.126;2023-06-22T00:07:03;98575.66;;;28.03;43.23
60820;BME280;46641;48.904;9.126;2023-06-22T00:11:54;98560.03;;;28.00;43.58
60820;BME280;46641;48.904;9.126;2023-06-22T00:16:44;98554.09;;;27.98;43.59
60820;BME280;46641;48.904;9.126;2023-06-22T00:21:38;98549.25;;;27.94;43.58
60820;BME280;46641;48.904;9.126;2023-06-22T00:26:29;98555.13;;;27.91;43.85
60820;BME280;46641;48.904;9.126;2023-06-22T00:31:19;98556.50;;;27.89;43.22
60820;BME280;46641;48.904;9.126;2023-06-22T00:36:10;98554.84;;;27.88;43.70
60820;BME280;46641;48.904;9.126;2023-06-22T00:41:03;98568.00;;;27.84;43.28
60820;BME280;46641;48.904;9.126;2023-06-22T00:45:55;98552.38;;;27.81;43.44
60820;BME280;46641;48.904;9.126;2023-06-22T00:50:46;98569.59;;;27.80;43.30
60820;BME280;46641;48.904;9.126;2023-06-22T00:55:44;98613.16;;;27.77;43.47
60820;BME280;46641;48.904;9.126;2023-06-22T01:00:38;98593.19;;;27.73;43.49
60820;BME280;46641;48.904;9.126;2023-06-22T01:05:28;98666.31;;;27.70;43.48
60820;BME280;46641;48.904;9.126;2023-06-22T01:10:40;98632.94;;;27.66;43.34
60820;BME280;46641;48.904;9.126;2023-06-22T01:20:25;98602.75;;;27.59;43.66
60820;BME280;46641;48.904;9.126;2023-06-22T01:25:28;98603.81;;;27.58;43.58
60820;BME280;46641;48.904;9.126;2023-06-22T01:30:22;98602.72;;;27.54;43.48
60820;BME280;46641;48.904;9.126;2023-06-22T01:35:15;98587.09;;;27.50;44.03
60820;BME280;46641;48.904;9.126;2023-06-22T01:40:07;98586.78;;;27.47;43.90
60820;BME280;46641;48.904;9.126;2023-06-22T01:44:59;98592.69;;;27.44;43.55
60820;BME280;46641;48.904;9.126;2023-06-22T01:49:50;98588.63;;;27.41;44.02
60820;BME280;46641;48.904;9.126;2023-06-22T01:54:41;98591.81;;;27.38;43.65
60820;BME280;46641;48.904;9.126;2023-06-22T01:59:36;98599.31;;;27.36;43.83
60820;BME280;46641;48.904;9.126;2023-06-22T02:04:34;98585.34;;;27.34;44.21
60820;BME280;46641;48.904;9.126;2023-06-22T02:09:29;98611.63;;;27.32;43.91
60820;BME280;46641;48.904;9.126;2023-06-22T02:14:21;98598.97;;;27.27;43.88
60820;BME280;46641;48.904;9.126;2023-06-22T02:19:12;98612.66;;;27.26;43.89
60820;BME280;46641;48.904;9.126;2023-06-22T02:24:02;98600.78;;;27.22;43.90
60820;BME280;46641;48.904;9.126;2023-06-22T02:28:53;98600.50;;;27.18;43.77
60820;BME280;46641;48.904;9.126;2023-06-22T02:33:43;98595.34;;;27.17;43.61
60820;BME280;46641;48.904;9.126;2023-06-22T02:38:37;98583.25;;;27.14;44.20
60820;BME280;46641;48.904;9.126;2023-06-22T02:43:28;98574.88;;;27.11;44.33
60820;BME280;46641;48.904;9.126;2023-06-22T02:48:18;98578.06;;;27.08;44.17
60820;BME280;46641;48.904;9.126;2023-06-22T02:53:08;98567.00;;;27.04;44.09
60820;BME280;46641;48.904;9.126;2023-06-22T02:57:58;98578.00;;;27.02;44.03
60820;BME280;46641;48.904;9.126;2023-06-22T03:02:49;98551.63;;;26.99;44.17
60820;BME280;46641;48.904;9.126;2023-06-22T03:07:40;98562.88;;;26.96;44.20
60820;BME280;46641;48.904;9.126;2023-06-22T03:12:31;98566.06;;;26.93;43.98
60820;BME280;46641;48.904;9.126;2023-06-22T03:17:22;98561.19;;;26.90;43.82
60820;BME280;46641;48.904;9.126;2023-06-22T03:22:12;98545.59;;;26.87;44.34
60820;BME280;46641;48.904;9.126;2023-06-22T03:27:02;98544.25;;;26.85;44.16
60820;BME280;46641;48.904;9.126;2023-06-22T03:31:55;98548.78;;;26.84;43.97
60820;BME280;46641;48.904;9.126;2023-06-22T03:36:45;98545.78;;;26.80;44.16
60820;BME280;46641;48.904;9.126;2023-06-22T03:41:35;98553.31;;;26.78;43.96
60820;BME280;46641;48.904;9.126;2023-06-22T03:46:25;98550.31;;;26.75;44.21
60820;BME280;46641;48.904;9.126;2023-06-22T03:51:16;98556.72;;;26.74;44.20
60820;BME280;46641;48.904;9.126;2023-06-22T03:56:06;98553.50;;;26.72;44.22
60820;BME280;46641;48.904;9.126;2023-06-22T04:00:56;98545.94;;;26.69;44.22
60820;BME280;46641;48.904;9.126;2023-06-22T04:05:47;98538.38;;;26.66;44.22
60820;BME280;46641;48.904;9.126;2023-06-22T04:10:37;98538.88;;;26.63;44.39
60820;BME280;46641;48.904;9.126;2023-06-22T04:15:28;98539.38;;;26.60;45.03
60820;BME280;46641;48.904;9.126;2023-06-22T04:20:18;98536.41;;;26.56;44.89
60820;BME280;46641;48.904;9.126;2023-06-22T04:25:08;98533.41;;;26.52;44.82
60820;BME280;46641;48.904;9.126;2023-06-22T04:29:58;98532.84;;;26.50;44.71
60820;BME280;46641;48.904;9.126;2023-06-22T04:34:50;98529.56;;;26.48;45.09
60820;BME280;46641;48.904;9.126;2023-06-22T04:39:42;98521.75;;;26.47;44.93
60820;BME280;46641;48.904;9.126;2023-06-22T04:44:33;98512.09;;;26.46;45.10
60820;BME280;46641;48.904;9.126;2023-06-22T04:49:23;98519.56;;;26.44;45.28
60820;BME280;46641;48.904;9.126;2023-06-22T04:54:22;98511.78;;;26.42;44.97
60820;BME280;46641;48.904;9.126;2023-06-22T04:59:12;98510.13;;;26.41;45.06
60820;BME280;46641;48.904;9.126;2023-06-22T05:04:03;98505.03;;;26.40;45.24
60820;BME280;46641;48.904;9.126;2023-06-22T05:08:56;98496.19;;;26.39;45.36
60820;BME280;46641;48.904;9.126;2023-06-22T05:13:50;98489.97;;;26.39;45.44
60820;BME280;46641;48.904;9.126;2023-06-22T05:18:40;98490.78;;;25.95;50.46
60820;BME280;46641;48.904;9.126;2023-06-22T05:23:31;98500.72;;;25.78;51.66
60820;BME280;46641;48.904;9.126;2023-06-22T05:28:22;98496.25;;;25.67;51.64
60820;BME280;46641;48.904;9.126;2023-06-22T05:33:13;98491.28;;;25.92;50.36
60820;BME280;46641;48.904;9.126;2023-06-22T05:38:03;98474.31;;;26.08;49.71
60820;BME280;46641;48.904;9.126;2023-06-22T05:42:53;98487.84;;;26.19;48.93
60820;BME280;46641;48.904;9.126;2023-06-22T05:47:44;98491.69;;;26.23;48.56
60820;BME280;46641;48.904;9.126;2023-06-22T05:52:34;98488.75;;;26.24;48.10
60820;BME280;46641;48.904;9.126;2023-06-22T05:57:25;98479.13;;;26.28;48.12
60820;BME280;46641;48.904;9.126;2023-06-22T06:02:15;98481.56;;;26.30;48.42
60820;BME280;46641;48.904;9.126;2023-06-22T06:07:05;98481.06;;;26.33;47.53
60820;BME280;46641;48.904;9.126;2023-06-22T06:11:56;98471.63;;;26.08;51.36
60820;BME280;46641;48.904;9.126;2023-06-22T06:16:48;98480.88;;;25.79;53.45
60820;BME280;46641;48.904;9.126;2023-06-22T06:21:38;98471.97;;;25.56;54.09
60820;BME280;46641;48.904;9.126;2023-06-22T06:26:29;98467.25;;;25.47;54.83
60820;BME280;46641;48.904;9.126;2023-06-22T06:31:19;98468.34;;;25.46;54.48
60820;BME280;46641;48.904;9.126;2023-06-22T06:36:10;98480.19;;;25.50;54.77
60820;BME280;46641;48.904;9.126;2023-06-22T06:41:01;98471.34;;;25.49;54.76
60820;BME280;46641;48.904;9.126;2023-06-22T06:45:51;98479.59;;;25.81;52.72
60820;BME280;46641;48.904;9.126;2023-06-22T06:50:41;98478.63;;;26.09;51.22
60820;BME280;46641;48.904;9.126;2023-06-22T06:55:34;98487.94;;;26.24;50.72
60820;BME280;46641;48.904;9.126;2023-06-22T07:00:24;98466.00;;;26.32;50.14
60820;BME280;46641;48.904;9.126;2023-06-22T07:05:15;98457.47;;;26.35;49.97
60820;BME280;46641;48.904;9.126;2023-06-22T07:10:06;98452.97;;;26.41;49.74
60820;BME280;46641;48.904;9.126;2023-06-22T07:15:14;98450.84;;;26.43;49.36
60820;BME280;46641;48.904;9.126;2023-06-22T07:20:05;98443.09;;;26.46;50.84
60820;BME280;46641;48.904;9.126;2023-06-22T07:24:58;98429.97;;;26.01;52.53
60820;BME280;46641;48.904;9.126;2023-06-22T07:29:49;98424.44;;;26.34;50.93
60820;BME280;46641;48.904;9.126;2023-06-22T07:34:39;98412.84;;;26.51;50.35
60820;BME280;46641;48.904;9.126;2023-06-22T07:39:29;98413.13;;;26.54;49.98
60820;BME280;46641;48.904;9.126;2023-06-22T07:44:20;98406.75;;;26.61;49.84
60820;BME280;46641;48.904;9.126;2023-06-22T07:49:10;98395.31;;;26.70;49.34
60820;BME280;46641;48.904;9.126;2023-06-22T07:54:00;98388.63;;;26.73;50.50
60820;BME280;46641;48.904;9.126;2023-06-22T07:58:51;98388.09;;;26.22;52.40
60820;BME280;46641;48.904;9.126;2023-06-22T08:03:41;98393.41;;;26.66;50.66
60820;BME280;46641;48.904;9.126;2023-06-22T08:08:32;98411.81;;;26.84;49.97
60820;BME280;46641;48.904;9.126;2023-06-22T08:13:22;98420.25;;;26.98;49.44
60820;BME280;46641;48.904;9.126;2023-06-22T08:18:12;98415.72;;;27.03;49.17
60820;BME280;46641;48.904;9.126;2023-06-22T08:23:02;98429.22;;;27.09;49.16
60820;BME280;46641;48.904;9.126;2023-06-22T08:27:56;98426.59;;;27.14;48.75
60820;BME280;46641;48.904;9.126;2023-06-22T08:32:46;98430.13;;;27.19;48.67
60820;BME280;46641;48.904;9.126;2023-06-22T08:37:36;98428.00;;;27.21;50.15
60820;BME280;46641;48.904;9.126;2023-06-22T08:42:29;98427.78;;;27.28;48.80
60820;BME280;46641;48.904;9.126;2023-06-22T08:47:19;98427.03;;;27.38;48.63
60820;BME280;46641;48.904;9.126;2023-06-22T08:52:10;98419.53;;;27.45;48.75
60820;BME280;46641;48.904;9.126;2023-06-22T08:57:02;98425.25;;;27.54;48.11
60820;BME280;46641;48.904;9.126;2023-06-22T09:01:52;98432.81;;;27.62;47.85
60820;BME280;46641;48.904;9.126;2023-06-22T09:06:42;98445.75;;;27.65;47.50
60820;BME280;46641;48.904;9.126;2023-06-22T09:11:36;98485.31;;;27.69;47.58
60820;BME280;46641;48.904;9.126;2023-06-22T09:16:26;98438.56;;;27.76;47.72
60820;BME280;46641;48.904;9.126;2023-06-22T09:21:16;98425.94;;;27.81;47.17
60820;BME280;46641;48.904;9.126;2023-06-22T09:26:08;98409.56;;;27.88;46.99
60820;BME280;46641;48.904;9.126;2023-06-22T09:30:58;98424.16;;;27.97;46.88
60820;BME280;46641;48.904;9.126;2023-06-22T09:35:49;98389.47;;;28.06;46.86
60820;BME280;46641;48.904;9.126;2023-06-22T09:40:41;98371.19;;;28.13;47.14
60820;BME280;46641;48.904;9.126;2023-06-22T09:45:31;98366.91;;;28.22;46.92
60820;BME280;46641;48.904;9.126;2023-06-22T09:50:21;98357.25;;;28.31;46.38
60820;BME280;46641;48.904;9.126;2023-06-22T09:55:11;98336.84;;;28.40;46.63
60820;BME280;46641;48.904;9.126;2023-06-22T10:00:02;98341.69;;;28.49;46.68
60820;BME280;46641;48.904;9.126;2023-06-22T10:04:55;98336.84;;;28.61;47.42
60820;BME280;46641;48.904;9.126;2023-06-22T10:09:46;98341.69;;;28.49;48.10
60820;BME280;46641;48.904;9.126;2023-06-22T10:14:36;98347.63;;;28.76;47.13
60820;BME280;46641;48.904;9.126;2023-06-22T10:19:26;98346.00;;;29.06;46.96
60820;BME280;46641;48.904;9.126;2023-06-22T10:24:16;98327.34;;;29.25;47.78
60820;BME280;46641;48.904;9.126;2023-06-22T10:29:07;98331.88;;;29.50;47.75
60820;BME280;46641;48.904;9.126;2023-06-22T10:33:57;98321.06;;;29.65;47.38
60820;BME280;46641;48.904;9.126;2023-06-22T10:38:48;98305.34;;;29.77;46.94
60820;BME280;46641;48.904;9.126;2023-06-22T10:43:38;98308.78;;;29.88;46.98
60820;BME280;46641;48.904;9.126;2023-06-22T10:48:28;98294.19;;;29.94;46.90
60820;BME280;46641;48.904;9.126;2023-06-22T10:53:19;98291.19;;;30.01;47.17
60820;BME280;46641;48.904;9.126;2023-06-22T10:58:09;98283.56;;;30.08;47.10
60820;BME280;46641;48.904;9.126;2023-06-22T11:02:59;98278.47;;;30.07;45.40
60820;BME280;46641;48.904;9.126;2023-06-22T11:07:50;98286.91;;;29.90;47.20
60820;BME280;46641;48.904;9.126;2023-06-22T11:12:40;98285.41;;;30.23;47.07
60820;BME280;46641;48.904;9.126;2023-06-22T11:17:32;98274.69;;;30.42;46.69
60820;BME280;46641;48.904;9.126;2023-06-22T11:22:22;98285.94;;;30.54;46.50
60820;BME280;46641;48.904;9.126;2023-06-22T11:27:13;98284.25;;;30.63;46.52
60820;BME280;46641;48.904;9.126;2023-06-22T11:32:06;98285.53;;;30.71;46.57
60820;BME280;46641;48.904;9.126;2023-06-22T11:36:57;98276.03;;;30.79;46.50
60820;BME280;46641;48.904;9.126;2023-06-22T11:41:47;98273.50;;;30.87;46.24
60820;BME280;46641;48.904;9.126;2023-06-22T11:46:37;98256.97;;;30.94;46.08
60820;BME280;46641;48.904;9.126;2023-06-22T11:51:27;98255.00;;;31.00;45.75
60820;BME280;46641;48.904;9.126;2023-06-22T11:56:18;98269.28;;;31.05;45.89
60820;BME280;46641;48.904;9.126;2023-06-22T12:01:08;98258.69;;;31.09;46.08
60820;BME280;46641;48.904;9.126;2023-06-22T12:05:59;98253.00;;;31.10;45.46
60820;BME280;46641;48.904;9.126;2023-06-22T12:10:50;98280.78;;;31.16;45.18
60820;BME280;46641;48.904;9.126;2023-06-22T12:15:40;98294.03;;;31.17;45.34
60820;BME280;46641;48.904;9.126;2023-06-22T12:20:30;98290.44;;;31.22;44.93
60820;BME280;46641;48.904;9.126;2023-06-22T12:25:22;98284.47;;;31.25;45.08
60820;BME280;46641;48.904;9.126;2023-06-22T12:30:12;98287.69;;;31.27;44.91
60820;BME280;46641;48.904;9.126;2023-06-22T12:35:02;98279.28;;;31.29;44.68
60820;BME280;46641;48.904;9.126;2023-06-22T12:39:54;98271.69;;;31.31;44.58
60820;BME280;46641;48.904;9.126;2023-06-22T12:44:44;98282.78;;;31.29;44.32
60820;BME280;46641;48.904;9.126;2023-06-22T12:49:35;98287.38;;;31.34;44.44
60820;BME280;46641;48.904;9.126;2023-06-22T12:54:25;98284.38;;;31.35;44.65
60820;BME280;46641;48.904;9.126;2023-06-22T12:59:16;98283.78;;;31.38;43.86
60820;BME280;46641;48.904;9.126;2023-06-22T13:04:07;98294.91;;;31.37;43.58
60820;BME280;46641;48.904;9.126;2023-06-22T13:08:58;98295.34;;;31.20;44.61
60820;BME280;46641;48.904;9.126;2023-06-22T13:13:48;98292.13;;;31.42;43.58
60820;BME280;46641;48.904;9.126;2023-06-22T13:18:38;98286.72;;;31.18;44.46
60820;BME280;46641;48.904;9.126;2023-06-22T13:23:29;98289.59;;;31.51;44.22
60820;BME280;46641;48.904;9.126;2023-06-22T13:28:19;98280.50;;;31.65;43.83
60820;BME280;46641;48.904;9.126;2023-06-22T13:33:10;98256.06;;;31.71;43.96
60820;BME280;46641;48.904;9.126;2023-06-22T13:38:01;98233.03;;;31.73;43.77
60820;BME280;46641;48.904;9.126;2023-06-22T13:42:51;98229.19;;;31.74;43.55
60820;BME280;46641;48.904;9.126;2023-06-22T13:47:41;98207.28;;;31.76;43.56
60820;BME280;46641;48.904;9.126;2023-06-22T13:52:32;98207.28;;;31.76;43.60
60820;BME280;46641;48.904;9.126;2023-06-22T13:57:22;98204.56;;;31.76;43.30
60820;BME280;46641;48.904;9.126;2023-06-22T14:02:12;98191.03;;;31.76;43.25
60820;BME280;46641;48.904;9.126;2023-06-22T14:07:02;98175.81;;;31.80;43.17
60820;BME280;46641;48.904;9.126;2023-06-22T14:11:54;98165.50;;;31.82;43.21
60820;BME280;46641;48.904;9.126;2023-06-22T14:16:45;98174.91;;;31.84;42.99
60820;BME280;46641;48.904;9.126;2023-06-22T14:21:36;98174.63;;;31.86;43.10
60820;BME280;46641;48.904;9.126;2023-06-22T14:26:26;98174.88;;;31.89;43.00
60820;BME280;46641;48.904;9.126;2023-06-22T14:31:17;98181.88;;;31.91;42.95
60820;BME280;46641;48.904;9.126;2023-06-22T14:36:08;98179.41;;;31.94;43.06
60820;BME280;46641;48.904;9.126;2023-06-22T14:40:58;98178.00;;;31.97;42.72
60820;BME280;46641;48.904;9.126;2023-06-22T14:45:48;98179.31;;;31.99;42.58
60820;BME280;46641;48.904;9.126;2023-06-22T14:50:38;98181.44;;;32.02;42.94
60820;BME280;46641;48.904;9.126;2023-06-22T14:55:29;98171.09;;;32.04;42.54
60820;BME280;46641;48.904;9.126;2023-06-22T15:00:19;98158.06;;;32.06;42.60
60820;BME280;46641;48.904;9.126;2023-06-22T15:05:09;98151.28;;;32.09;42.24
60820;BME280;46641;48.904;9.126;2023-06-22T15:10:00;98142.22;;;32.00;36.74
60820;BME280;46641;48.904;9.126;2023-06-22T15:14:50;98136.03;;;31.61;39.24
60820;BME280;46641;48.904;9.126;2023-06-22T15:19:40;98145.25;;;31.98;39.30
60820;BME280;46641;48.904;9.126;2023-06-22T15:24:31;98132.44;;;32.18;39.66
60820;BME280;46641;48.904;9.126;2023-06-22T15:29:21;98126.31;;;32.26;39.61
60820;BME280;46641;48.904;9.126;2023-06-22T15:34:13;98120.84;;;32.31;40.22
60820;BME280;46641;48.904;9.126;2023-06-22T15:39:03;98127.03;;;32.31;39.85
60820;BME280;46641;48.904;9.126;2023-06-22T15:43:54;98127.84;;;32.32;39.92
60820;BME280;46641;48.904;9.126;2023-06-22T15:48:44;98126.59;;;32.10;37.17
60820;BME280;46641;48.904;9.126;2023-06-22T15:53:34;98131.75;;;32.26;38.44
60820;BME280;46641;48.904;9.126;2023-06-22T15:58:24;98129.75;;;32.31;38.69
60820;BME280;46641;48.904;9.126;2023-06-22T16:03:15;98140.84;;;32.16;37.43
60820;BME280;46641;48.904;9.126;2023-06-22T16:08:09;98127.50;;;32.20;36.09
60820;BME280;46641;48.904;9.126;2023-06-22T16:13:03;98117.28;;;32.30;36.63
60820;BME280;46641;48.904;9.126;2023-06-22T16:17:53;98119.63;;;32.37;37.07
60820;BME280;46641;48.904;9.126;2023-06-22T16:22:44;98119.00;;;32.40;37.41
60820;BME280;46641;48.904;9.126;2023-06-22T16:27:36;98118.22;;;32.40;37.40
60820;BME280;46641;48.904;9.126;2023-06-22T16:32:26;98104.38;;;32.41;37.30
60820;BME280;46641;48.904;9.126;2023-06-22T16:37:16;98085.69;;;32.40;37.57
60820;BME280;46641;48.904;9.126;2023-06-22T16:42:07;98083.78;;;32.40;38.02
60820;BME280;46641;48.904;9.126;2023-06-22T16:46:58;98070.97;;;31.85;37.10
60820;BME280;46641;48.904;9.126;2023-06-22T16:51:49;98038.13;;;32.20;36.80
60820;BME280;46641;48.904;9.126;2023-06-22T16:56:39;98032.72;;;32.33;37.17
60820;BME280;46641;48.904;9.126;2023-06-22T17:01:32;98029.59;;;32.40;37.14
60820;BME280;46641;48.904;9.126;2023-06-22T17:06:23;98081.91;;;32.41;35.45
60820;BME280;46641;48.904;9.126;2023-06-22T17:11:13;98105.47;;;32.40;35.69
60820;BME280;46641;48.904;9.126;2023-06-22T17:16:05;98122.81;;;32.39;35.63
60820;BME280;46641;48.904;9.126;2023-06-22T17:20:59;98137.47;;;32.38;36.21
60820;BME280;46641;48.904;9.126;2023-06-22T17:25:51;98146.72;;;32.37;36.29
60820;BME280;46641;48.904;9.126;2023-06-22T17:30:42;98131.88;;;32.34;36.59
60820;BME280;46641;48.904;9.126;2023-06-22T17:35:32;98127.03;;;32.31;36.80
60820;BME280;46641;48.904;9.126;2023-06-22T17:40:24;98149.00;;;32.30;37.12
60820;BME280;46641;48.904;9.126;2023-06-22T17:45:21;98164.75;;;32.28;36.88
60820;BME280;46641;48.904;9.126;2023-06-22T17:50:12;98169.66;;;32.26;37.20
60820;BME280;46641;48.904;9.126;2023-06-22T17:55:03;98188.41;;;32.22;36.93
60820;BME280;46641;48.904;9.126;2023-06-22T17:59:53;98183.59;;;32.19;36.89
60820;BME280;46641;48.904;9.126;2023-06-22T18:04:43;98193.09;;;32.17;37.26
60820;BME280;46641;48.904;9.126;2023-06-22T18:09:34;98187.78;;;32.11;37.49
60820;BME280;46641;48.904;9.126;2023-06-22T18:14:25;98161.31;;;32.08;37.66
60820;BME280;46641;48.904;9.126;2023-06-22T18:19:17;98154.84;;;32.04;37.17
60820;BME280;46641;48.904;9.126;2023-06-22T18:24:08;98163.59;;;32.01;37.53
60820;BME280;46641;48.904;9.126;2023-06-22T18:28:59;98181.50;;;31.97;37.66
60820;BME280;46641;48.904;9.126;2023-06-22T18:33:58;98199.44;;;31.93;37.79
60820;BME280;46641;48.904;9.126;2023-06-22T18:38:49;98205.75;;;31.88;37.49
60820;BME280;46641;48.904;9.126;2023-06-22T18:43:40;98174.91;;;31.84;37.24
60820;BME280;46641;48.904;9.126;2023-06-22T18:48:31;98172.00;;;31.81;38.05
60820;BME280;46641;48.904;9.126;2023-06-22T18:53:25;98135.28;;;31.75;37.86
60820;BME280;46641;48.904;9.126;2023-06-22T18:58:24;98150.50;;;31.71;37.99
60820;BME280;46641;48.904;9.126;2023-06-22T19:03:31;98212.00;;;31.65;38.17
60820;BME280;46641;48.904;9.126;2023-06-22T19:08:21;98253.75;;;31.59;38.23
60820;BME280;46641;48.904;9.126;2023-06-22T19:18:24;98288.28;;;31.48;38.10
60820;BME280;46641;48.904;9.126;2023-06-22T19:23:32;98289.16;;;31.43;38.32
60820;BME280;46641;48.904;9.126;2023-06-22T19:28:29;98263.25;;;31.37;38.29
60820;BME280;46641;48.904;9.126;2023-06-22T19:33:21;98267.88;;;31.32;38.14
60820;BME280;46641;48.904;9.126;2023-06-22T19:38:15;98254.44;;;31.27;38.41
60820;BME280;46641;48.904;9.126;2023-06-22T19:43:06;98254.47;;;31.22;38.29
60820;BME280;46641;48.904;9.126;2023-06-22T19:47:56;98247.53;;;31.15;38.55
60820;BME280;46641;48.904;9.126;2023-06-22T19:52:47;98247.00;;;31.13;38.38
60820;BME280;46641;48.904;9.126;2023-06-22T19:57:37;98256.28;;;31.07;38.61
60820;BME280;46641;48.904;9.126;2023-06-22T20:02:28;98273.66;;;31.01;38.63
60820;BME280;46641;48.904;9.126;2023-06-22T20:07:18;98285.03;;;30.98;38.96
60820;BME280;46641;48.904;9.126;2023-06-22T20:12:22;98293.47;;;30.91;38.87
60820;BME280;46641;48.904;9.126;2023-06-22T20:17:17;98290.03;;;30.86;38.71
60820;BME280;46641;48.904;9.126;2023-06-22T20:22:07;98288.44;;;30.80;39.01
60820;BME280;46641;48.904;9.126;2023-06-22T20:26:58;98309.28;;;30.74;39.32
60820;BME280;46641;48.904;9.126;2023-06-22T20:31:49;98326.63;;;30.68;39.17
60820;BME280;46641;48.904;9.126;2023-06-22T20:36:41;98332.34;;;30.61;39.42
60820;BME280;46641;48.904;9.126;2023-06-22T20:41:31;98360.31;;;30.46;40.44
60820;BME280;46641;48.904;9.126;2023-06-22T20:46:21;98380.16;;;30.26;41.04
60820;BME280;46641;48.904;9.126;2023-06-22T20:51:11;98399.38;;;30.10;41.39
60820;BME280;46641;48.904;9.126;2023-06-22T20:56:02;98406.69;;;29.99;41.35
60820;BME280;46641;48.904;9.126;2023-06-22T21:00:52;98424.53;;;29.95;41.33
60820;BME280;46641;48.904;9.126;2023-06-22T21:05:45;98402.75;;;29.81;41.15
60820;BME280;46641;48.904;9.126;2023-06-22T21:10:36;98383.31;;;29.79;41.41
60820;BME280;46641;48.904;9.126;2023-06-22T21:15:26;98377.38;;;29.82;41.35
60820;BME280;46641;48.904;9.126;2023-06-22T21:20:17;98381.91;;;29.87;40.92
60820;BME280;46641;48.904;9.126;2023-06-22T21:25:14;98387.91;;;29.84;40.87
60820;BME280;46641;48.904;9.126;2023-06-22T21:30:07;98396.53;;;29.80;40.94
60820;BME280;46641;48.904;9.126;2023-06-22T21:34:58;98403.53;;;29.81;41.23
60820;BME280;46641;48.904;9.126;2023-06-22T21:39:50;98434.88;;;29.77;40.90
60820;BME280;46641;48.904;9.126;2023-06-22T21:44:40;98429.97;;;29.79;40.77
60820;BME280;46641;48.904;9.126;2023-06-22T21:49:31;98467.25;;;29.77;40.92
60820;BME280;46641;48.904;9.126;2023-06-22T21:54:21;98493.13;;;29.73;40.90
60820;BME280;46641;48.904;9.126;2023-06-22T21:59:11;98517.16;;;29.70;40.90
60820;BME280;46641;48.904;9.126;2023-06-22T22:04:01;98522.84;;;29.63;41.19
60820;BME280;46641;48.904;9.126;2023-06-22T22:08:52;98528.78;;;29.60;41.46
60820;BME280;46641;48.904;9.126;2023-06-22T22:13:42;98540.59;;;29.54;40.81
60820;BME280;46641;48.904;9.126;2023-06-22T22:18:33;98556.25;;;29.47;40.81
60820;BME280;46641;48.904;9.126;2023-06-22T22:23:23;98550.03;;;29.41;40.96
60820;BME280;46641;48.904;9.126;2023-06-22T22:28:15;98538.19;;;29.37;41.45
60820;BME280;46641;48.904;9.126;2023-06-22T22:33:06;98518.53;;;29.31;41.07
60820;BME280;46641;48.904;9.126;2023-06-22T22:37:56;98516.34;;;29.23;41.21
60820;BME280;46641;48.904;9.126;2023-06-22T22:42:46;98516.88;;;29.15;41.68
60820;BME280;46641;48.904;9.126;2023-06-22T22:47:37;98514.75;;;29.12;41.88
60820;BME280;46641;48.904;9.126;2023-06-22T22:52:28;98522.81;;;29.07;41.71
60820;BME280;46641;48.904;9.126;2023-06-22T22:57:20;98523.34;;;29.04;41.39
60820;BME280;46641;48.904;9.126;2023-06-22T23:02:10;98516.03;;;28.99;41.30
60820;BME280;46641;48.904;9.126;2023-06-22T23:07:00;98521.16;;;28.96;41.58
60820;BME280;46641;48.904;9.126;2023-06-22T23:11:51;98529.22;;;28.91;41.65
60820;BME280;46641;48.904;9.126;2023-06-22T23:16:42;98531.34;;;28.88;41.49
60820;BME280;46641;48.904;9.126;2023-06-22T23:21:33;98541.84;;;28.85;41.98
60820;BME280;46641;48.904;9.126;2023-06-22T23:26:23;98534.06;;;28.83;41.94
60820;BME280;46641;48.904;9.126;2023-06-22T23:31:15;98532.94;;;28.79;42.05
60820;BME280;46641;48.904;9.126;2023-06-22T23:36:05;98529.44;;;28.74;41.61
60820;BME280;46641;48.904;9.126;2023-06-22T23:40:56;98535.63;;;28.69;42.16
60820;BME280;46641;48.904;9.126;2023-06-22T23:45:46;98526.97;;;28.62;42.00
60820;BME280;46641;48.904;9.126;2023-06-22T23:50:36;98537.47;;;28.58;42.49
60820;BME280;46641;48.904;9.126;2023-06-22T23:55:30;98533.41;;;28.56;42.15
